createdAt,value
2019-01-26T00:01:07.957Z,67.47
2019-01-26T00:03:39.412Z,67.36
2019-01-26T00:06:12.109Z,67.13
2019-01-26T00:08:43.611Z,67.06
2019-01-26T00:11:15.595Z,67.87
2019-01-26T00:13:47.047Z,67.85
2019-01-26T00:16:21.141Z,66.91
2019-01-26T00:18:52.156Z,66.84
2019-01-26T00:21:23.625Z,66.92
2019-01-26T00:23:56.146Z,66.46
2019-01-26T00:26:29.708Z,66.00
2019-01-26T00:29:01.183Z,66.03
2019-01-26T00:31:32.660Z,65.07
2019-01-26T00:34:04.080Z,63.84
2019-01-26T00:36:35.542Z,63.08
2019-01-26T00:39:09.854Z,62.70
2019-01-26T00:41:41.364Z,61.13
2019-01-26T00:44:13.810Z,61.21
2019-01-26T00:46:45.271Z,60.80
2019-01-26T00:49:16.686Z,60.97
2019-01-26T00:51:48.154Z,60.61
2019-01-26T00:54:19.578Z,60.16
2019-01-26T00:56:51.056Z,60.85
2019-01-26T00:59:22.466Z,61.03
2019-01-26T01:01:53.970Z,60.54
2019-01-26T01:04:25.673Z,61.18
2019-01-26T01:06:57.106Z,60.81
2019-01-26T01:09:28.530Z,61.18
2019-01-26T01:12:00.000Z,61.17
2019-01-26T01:14:31.500Z,60.37
2019-01-26T01:17:02.958Z,60.88
2019-01-26T01:19:35.346Z,60.75
2019-01-26T01:22:06.810Z,60.68
2019-01-26T01:24:38.162Z,60.30
2019-01-26T01:27:09.645Z,60.60
2019-01-26T01:29:42.648Z,60.57
2019-01-26T01:32:14.116Z,60.87
2019-01-26T01:34:47.659Z,60.33
2019-01-26T01:37:18.972Z,59.15
2019-01-26T01:39:50.402Z,59.66
2019-01-26T01:42:21.858Z,59.38
2019-01-26T01:44:53.273Z,59.95
2019-01-26T01:47:24.714Z,60.27
2019-01-26T01:50:01.543Z,60.32
2019-01-26T01:52:33.015Z,60.14
2019-01-26T01:55:04.484Z,60.33
2019-01-26T01:57:37.414Z,59.85
2019-01-26T02:00:16.894Z,59.60
2019-01-26T02:02:48.354Z,59.17
2019-01-26T02:05:19.892Z,59.64
2019-01-26T02:07:51.720Z,59.04
2019-01-26T02:10:25.164Z,59.33
2019-01-26T02:12:56.559Z,59.82
2019-01-26T02:15:27.966Z,60.40
2019-01-26T02:17:59.434Z,60.48
2019-01-26T02:20:30.859Z,60.82
2019-01-26T02:23:02.520Z,60.79
2019-01-26T02:25:33.987Z,60.89
2019-01-26T02:28:05.539Z,60.88
2019-01-26T02:30:36.962Z,60.17
2019-01-26T02:33:08.419Z,60.59
2019-01-26T02:35:39.846Z,60.67
2019-01-26T02:38:11.307Z,60.57
2019-01-26T02:40:42.720Z,61.23
2019-01-26T02:43:14.179Z,61.17
2019-01-26T02:45:48.023Z,61.09
2019-01-26T02:48:19.480Z,60.80
2019-01-26T02:50:50.889Z,60.33
2019-01-26T02:53:22.252Z,59.97
2019-01-26T02:55:53.673Z,60.61
2019-01-26T02:58:26.119Z,60.15
2019-01-26T03:00:57.538Z,59.28
2019-01-26T03:03:28.978Z,59.28
2019-01-26T03:06:00.383Z,59.16
2019-01-26T03:08:31.839Z,58.61
2019-01-26T03:11:03.234Z,58.70
2019-01-26T03:13:34.728Z,59.27
2019-01-26T03:16:06.234Z,59.01
2019-01-26T03:18:37.678Z,58.70
2019-01-26T03:21:09.077Z,58.85
2019-01-26T03:23:40.723Z,59.26
2019-01-26T03:26:12.141Z,59.18
2019-01-26T03:28:43.653Z,59.23
2019-01-26T03:31:15.063Z,60.01
2019-01-26T03:33:46.515Z,59.29
2019-01-26T03:36:17.935Z,58.81
2019-01-26T03:38:49.366Z,59.74
2019-01-26T03:41:20.912Z,60.14
2019-01-26T03:43:52.347Z,60.84
2019-01-26T03:46:23.751Z,61.26
2019-01-26T03:48:55.194Z,61.89
2019-01-26T03:51:26.607Z,62.64
2019-01-26T03:53:58.057Z,64.51
2019-01-26T03:56:32.738Z,67.11
2019-01-26T03:59:02.707Z,68.70
2019-01-26T04:01:34.209Z,70.07
2019-01-26T04:04:06.622Z,71.59
2019-01-26T04:06:39.168Z,71.52
2019-01-26T04:09:12.538Z,72.96
2019-01-26T04:11:43.946Z,72.80
2019-01-26T04:14:15.374Z,72.81
2019-01-26T04:16:46.790Z,72.03
2019-01-26T04:19:18.138Z,71.54
2019-01-26T04:21:49.558Z,71.76
2019-01-26T04:24:21.289Z,71.28
2019-01-26T04:26:52.705Z,71.65
2019-01-26T04:29:25.682Z,71.37
2019-01-26T04:31:57.109Z,71.39
2019-01-26T04:34:28.568Z,72.45
2019-01-26T04:36:59.920Z,73.06
2019-01-26T04:39:31.359Z,74.56
2019-01-26T04:42:02.784Z,74.31
2019-01-26T04:44:34.153Z,74.95
2019-01-26T04:47:07.337Z,75.24
2019-01-26T04:49:39.779Z,76.06
2019-01-26T04:52:11.232Z,77.59
2019-01-26T04:54:42.735Z,78.82
2019-01-26T04:57:14.155Z,79.17
2019-01-26T04:59:48.584Z,80.06
2019-01-26T05:02:20.042Z,80.67
2019-01-26T05:04:51.536Z,81.38
2019-01-26T05:07:23.015Z,81.98
2019-01-26T05:09:54.461Z,83.38
2019-01-26T05:12:25.973Z,83.46
2019-01-26T05:14:57.446Z,84.01
2019-01-26T05:17:28.892Z,84.91
2019-01-26T05:20:00.349Z,85.24
2019-01-26T05:22:31.785Z,85.21
2019-01-26T05:25:03.231Z,85.66
2019-01-26T05:27:34.639Z,86.38
2019-01-26T05:30:10.251Z,87.08
2019-01-26T05:32:41.665Z,86.80
2019-01-26T05:35:13.111Z,86.67
2019-01-26T05:37:45.893Z,87.90
2019-01-26T05:40:17.724Z,88.27
2019-01-26T05:42:50.826Z,88.64
2019-01-26T05:45:25.775Z,88.67
2019-01-26T05:47:58.297Z,88.87
2019-01-26T05:50:29.760Z,88.83
2019-01-26T05:53:01.181Z,88.85
2019-01-26T05:55:32.712Z,89.18
2019-01-26T05:58:04.336Z,88.77
2019-01-26T06:00:36.638Z,88.83
2019-01-26T06:03:08.051Z,88.77
2019-01-26T06:05:42.903Z,88.22
2019-01-26T06:08:14.309Z,88.21
2019-01-26T06:10:45.761Z,88.22
2019-01-26T06:13:17.191Z,88.18
2019-01-26T06:15:48.670Z,88.10
2019-01-26T06:18:20.067Z,88.65
2019-01-26T06:20:51.507Z,89.02
2019-01-26T06:23:22.927Z,88.96
2019-01-26T06:25:54.385Z,88.77
2019-01-26T06:28:25.810Z,89.26
2019-01-26T06:30:58.495Z,88.87
2019-01-26T06:33:29.935Z,89.30
2019-01-26T06:36:01.391Z,89.35
2019-01-26T06:38:32.728Z,89.77
2019-01-26T06:41:05.897Z,89.63
2019-01-26T06:43:38.407Z,89.40
2019-01-26T06:46:11.345Z,89.35
2019-01-26T06:48:42.693Z,89.25
2019-01-26T06:51:14.127Z,89.30
2019-01-26T06:53:45.555Z,89.04
2019-01-26T06:56:16.991Z,88.97
2019-01-26T06:58:48.417Z,89.37
2019-01-26T07:01:19.789Z,88.98
2019-01-26T07:03:51.219Z,89.15
2019-01-26T07:06:27.503Z,88.22
2019-01-26T07:08:59.103Z,87.94
2019-01-26T07:11:30.527Z,88.57
2019-01-26T07:14:02.003Z,88.04
2019-01-26T07:16:33.431Z,88.38
2019-01-26T07:19:04.841Z,88.04
2019-01-26T07:21:36.279Z,87.88
2019-01-26T07:24:07.682Z,88.02
2019-01-26T07:26:39.133Z,88.30
2019-01-26T07:29:10.578Z,87.89
2019-01-26T07:31:42.048Z,88.10
2019-01-26T07:34:13.470Z,88.28
2019-01-26T07:36:44.904Z,87.80
2019-01-26T07:39:16.275Z,87.95
2019-01-26T07:41:47.734Z,88.26
2019-01-26T07:44:19.066Z,88.05
2019-01-26T07:46:53.245Z,87.60
2019-01-26T07:49:24.657Z,88.28
2019-01-26T07:51:56.104Z,88.83
2019-01-26T07:54:29.958Z,88.99
2019-01-26T07:57:01.371Z,89.70
2019-01-26T07:59:32.790Z,89.39
2019-01-26T08:02:04.236Z,89.32
2019-01-26T08:04:35.659Z,89.41
2019-01-26T08:07:07.509Z,89.84
2019-01-26T08:09:38.959Z,89.32
2019-01-26T08:12:12.073Z,89.87
2019-01-26T08:14:44.804Z,89.85
2019-01-26T08:17:16.294Z,89.36
2019-01-26T08:19:47.693Z,89.11
2019-01-26T08:22:20.643Z,89.51
2019-01-26T08:24:52.075Z,89.60
2019-01-26T08:27:24.528Z,88.83
2019-01-26T08:29:55.939Z,89.69
2019-01-26T08:32:27.380Z,89.56
2019-01-26T08:34:58.834Z,89.65
2019-01-26T08:37:30.353Z,89.47
2019-01-26T08:40:01.784Z,89.25
2019-01-26T08:42:33.231Z,88.99
2019-01-26T08:45:06.657Z,89.52
2019-01-26T08:47:38.121Z,89.53
2019-01-26T08:50:25.384Z,89.77
2019-01-26T08:52:56.848Z,89.39
2019-01-26T08:55:28.258Z,89.70
2019-01-26T08:58:00.763Z,89.27
2019-01-26T09:00:32.189Z,89.52
2019-01-26T09:03:19.711Z,89.04
2019-01-26T09:06:02.529Z,89.09
2019-01-26T09:08:34.119Z,89.46
2019-01-26T09:11:05.671Z,89.58
2019-01-26T09:13:37.041Z,89.07
2019-01-26T09:16:11.069Z,89.43
2019-01-26T09:18:42.575Z,88.76
2019-01-26T09:21:13.997Z,89.14
2019-01-26T09:23:45.455Z,88.98
2019-01-26T09:26:18.495Z,89.18
2019-01-26T09:28:50.681Z,89.63
2019-01-26T09:31:23.880Z,89.01
2019-01-26T09:33:55.310Z,90.04
2019-01-26T09:36:26.749Z,89.57
2019-01-26T09:38:58.195Z,89.86
2019-01-26T09:41:29.666Z,89.28
2019-01-26T09:44:01.150Z,88.85
2019-01-26T09:46:32.789Z,90.07
2019-01-26T09:49:05.310Z,89.83
2019-01-26T09:51:37.200Z,89.80
2019-01-26T09:54:08.845Z,89.88
2019-01-26T09:56:40.271Z,90.28
2019-01-26T09:59:11.770Z,90.76
2019-01-26T10:01:43.206Z,90.78
2019-01-26T10:04:15.574Z,90.82
2019-01-26T10:06:47.054Z,90.23
2019-01-26T10:09:18.622Z,90.13
2019-01-26T10:11:50.095Z,89.96
2019-01-26T10:14:21.565Z,89.98
2019-01-26T10:16:53.028Z,90.50
2019-01-26T10:19:24.446Z,90.87
2019-01-26T10:21:56.004Z,90.73
2019-01-26T10:24:27.877Z,90.12
2019-01-26T10:26:59.296Z,91.29
2019-01-26T10:29:30.832Z,90.56
2019-01-26T10:32:02.307Z,90.52
2019-01-26T10:34:33.742Z,90.40
2019-01-26T10:37:11.281Z,90.29
2019-01-26T10:39:45.764Z,90.25
2019-01-26T10:42:23.984Z,89.22
2019-01-26T10:44:58.026Z,89.36
2019-01-26T10:47:29.544Z,90.01
2019-01-26T10:50:02.494Z,89.75
2019-01-26T10:52:33.961Z,90.66
2019-01-26T10:55:08.506Z,90.66
2019-01-26T10:57:40.029Z,90.31
2019-01-26T11:00:15.459Z,90.86
2019-01-26T11:02:46.918Z,90.43
2019-01-26T11:05:18.721Z,90.11
2019-01-26T11:07:50.199Z,90.11
2019-01-26T11:10:21.660Z,90.99
2019-01-26T11:12:53.117Z,89.95
2019-01-26T11:15:24.622Z,90.39
2019-01-26T11:17:56.066Z,90.79
2019-01-26T11:20:29.160Z,90.85
2019-01-26T11:23:00.656Z,90.23
2019-01-26T11:25:34.459Z,90.49
2019-01-26T11:28:05.895Z,90.13
2019-01-26T11:30:38.413Z,90.28
2019-01-26T11:33:09.877Z,90.18
2019-01-26T11:35:41.337Z,88.94
2019-01-26T11:38:13.084Z,88.84
2019-01-26T11:40:51.037Z,88.84
2019-01-26T11:43:36.716Z,89.30
2019-01-26T11:46:16.884Z,88.63
2019-01-26T11:48:50.539Z,88.19
2019-01-26T11:51:32.928Z,88.37
2019-01-26T11:54:04.369Z,88.47
2019-01-26T11:56:47.741Z,87.72
2019-01-26T11:59:19.323Z,87.97
2019-01-26T12:02:10.826Z,88.11
2019-01-26T12:04:50.387Z,87.23
2019-01-26T12:07:26.917Z,87.87
2019-01-26T12:09:58.391Z,88.09
2019-01-26T12:12:29.889Z,87.14
2019-01-26T12:15:01.252Z,87.35
2019-01-26T12:17:32.771Z,86.85
2019-01-26T12:20:04.994Z,86.48
2019-01-26T12:22:36.595Z,86.50
2019-01-26T12:25:08.197Z,86.58
2019-01-26T12:27:40.189Z,86.54
2019-01-26T12:30:13.291Z,86.71
2019-01-26T12:32:44.700Z,85.39
2019-01-26T12:35:16.181Z,85.94
2019-01-26T12:37:48.867Z,86.48
2019-01-26T12:40:20.316Z,85.52
2019-01-26T12:42:51.751Z,85.46
2019-01-26T12:45:23.295Z,85.74
2019-01-26T12:47:55.925Z,84.54
2019-01-26T12:50:27.446Z,85.19
2019-01-26T12:52:59.034Z,85.15
2019-01-26T12:55:30.643Z,84.09
2019-01-26T12:58:02.175Z,84.74
2019-01-26T13:00:33.912Z,85.13
2019-01-26T13:03:05.963Z,85.03
2019-01-26T13:05:37.502Z,85.48
2019-01-26T13:08:10.028Z,85.25
2019-01-26T13:10:46.600Z,84.88
2019-01-26T13:13:20.124Z,85.02
2019-01-26T13:15:51.364Z,84.84
2019-01-26T13:18:22.813Z,84.03
2019-01-26T13:20:54.236Z,83.57
2019-01-26T13:23:25.712Z,84.30
2019-01-26T13:25:59.710Z,82.63
2019-01-26T13:28:31.201Z,83.70
2019-01-26T13:31:02.684Z,84.06
2019-01-26T13:33:34.217Z,83.83
2019-01-26T13:36:06.104Z,84.14
2019-01-26T13:38:37.570Z,83.87
2019-01-26T13:41:09.036Z,84.00
2019-01-26T13:43:40.503Z,83.70
2019-01-26T13:46:11.945Z,83.59
2019-01-26T13:48:44.711Z,83.26
2019-01-26T13:51:16.130Z,83.43
2019-01-26T13:53:47.629Z,83.58
2019-01-26T13:56:19.093Z,83.28
2019-01-26T13:58:50.524Z,83.12
2019-01-26T14:01:21.956Z,82.75
2019-01-26T14:03:53.450Z,82.38
2019-01-26T14:06:24.878Z,82.87
2019-01-26T14:08:56.361Z,82.74
2019-01-26T14:11:29.361Z,82.93
2019-01-26T14:14:00.834Z,82.87
2019-01-26T14:16:32.319Z,82.55
2019-01-26T14:19:03.915Z,82.83
2019-01-26T14:21:35.422Z,82.44
2019-01-26T14:24:06.819Z,82.43
2019-01-26T14:26:38.316Z,82.23
2019-01-26T14:29:13.652Z,82.23
2019-01-26T14:31:45.121Z,81.87
2019-01-26T14:34:16.568Z,82.21
2019-01-26T14:36:48.010Z,81.89
2019-01-26T14:39:19.812Z,82.67
2019-01-26T14:41:51.265Z,82.71
2019-01-26T14:44:24.405Z,82.48
2019-01-26T14:46:55.841Z,82.15
2019-01-26T14:49:27.521Z,82.17
2019-01-26T14:51:59.927Z,82.08
2019-01-26T14:54:31.483Z,81.84
2019-01-26T14:57:02.964Z,82.36
2019-01-26T14:59:35.451Z,82.19
2019-01-26T15:02:07.136Z,81.93
2019-01-26T15:04:38.700Z,82.40
2019-01-26T15:07:10.218Z,82.15
2019-01-26T15:09:41.800Z,82.42
2019-01-26T15:12:13.219Z,82.75
2019-01-26T15:14:44.710Z,83.17
2019-01-26T15:17:16.180Z,83.68
2019-01-26T15:19:47.616Z,82.74
2019-01-26T15:22:19.054Z,83.25
2019-01-26T15:24:50.501Z,82.67
2019-01-26T15:27:24.336Z,82.74
2019-01-26T15:29:55.969Z,83.00
2019-01-26T15:32:27.406Z,82.95
2019-01-26T15:34:58.862Z,83.04
2019-01-26T15:37:30.258Z,83.08
2019-01-26T15:40:01.690Z,82.71
2019-01-26T15:42:33.118Z,83.30
2019-01-26T15:45:06.023Z,83.25
2019-01-26T15:47:37.514Z,82.98
2019-01-26T15:50:13.100Z,83.32
2019-01-26T15:52:43.401Z,83.04
2019-01-26T15:55:17.851Z,82.82
2019-01-26T15:57:49.272Z,83.17
2019-01-26T16:00:27.407Z,83.27
2019-01-26T16:02:59.057Z,83.10
2019-01-26T16:05:30.633Z,82.59
2019-01-26T16:08:03.033Z,83.31
2019-01-26T16:10:34.505Z,83.76
2019-01-26T16:13:06.678Z,84.51
2019-01-26T16:15:38.949Z,83.62
2019-01-26T16:18:14.357Z,84.15
2019-01-26T16:20:45.932Z,84.24
2019-01-26T16:23:17.402Z,83.32
2019-01-26T16:25:48.927Z,84.04
2019-01-26T16:28:20.496Z,84.07
2019-01-26T16:30:52.000Z,84.47
2019-01-26T16:33:23.491Z,84.37
2019-01-26T16:35:55.055Z,85.10
2019-01-26T16:38:29.472Z,85.27
2019-01-26T16:41:02.042Z,84.59
2019-01-26T16:43:33.474Z,84.48
2019-01-26T16:46:04.983Z,84.40
2019-01-26T16:48:36.585Z,83.73
2019-01-26T16:51:08.788Z,84.56
2019-01-26T16:53:40.287Z,84.33
2019-01-26T16:56:11.837Z,84.26
2019-01-26T16:58:43.379Z,84.94
2019-01-26T17:01:14.826Z,84.66
2019-01-26T17:03:46.365Z,84.62
2019-01-26T17:06:17.876Z,83.89
2019-01-26T17:08:49.318Z,83.97
2019-01-26T17:11:20.716Z,85.00
2019-01-26T17:13:52.243Z,84.75
2019-01-26T17:16:23.751Z,84.67
2019-01-26T17:18:55.194Z,84.03
2019-01-26T17:21:27.637Z,83.85
2019-01-26T17:23:59.079Z,83.80
2019-01-26T17:26:30.550Z,83.20
2019-01-26T17:29:03.948Z,83.19
2019-01-26T17:31:35.416Z,83.62
2019-01-26T17:34:06.890Z,83.15
2019-01-26T17:36:38.339Z,83.25
2019-01-26T17:39:13.349Z,83.00
2019-01-26T17:41:44.893Z,82.42
2019-01-26T17:44:16.306Z,83.27
2019-01-26T17:46:47.757Z,82.99
2019-01-26T17:49:19.160Z,82.82
2019-01-26T17:51:50.609Z,82.55
2019-01-26T17:54:22.025Z,82.72
2019-01-26T17:56:53.480Z,82.59
2019-01-26T17:59:25.007Z,82.72
2019-01-26T18:01:58.831Z,83.10
2019-01-26T18:04:30.250Z,82.86
2019-01-26T18:07:01.690Z,82.79
2019-01-26T18:09:34.080Z,82.16
2019-01-26T18:12:08.700Z,82.55
2019-01-26T18:14:40.129Z,83.07
2019-01-26T18:17:11.708Z,83.33
2019-01-26T18:19:43.162Z,83.01
2019-01-26T18:22:14.657Z,83.28
2019-01-26T18:24:47.588Z,83.01
2019-01-26T18:27:19.034Z,82.56
2019-01-26T18:29:50.513Z,83.60
2019-01-26T18:32:23.606Z,82.37
2019-01-26T18:34:55.042Z,82.36
2019-01-26T18:37:27.525Z,82.76
2019-01-26T18:39:58.960Z,82.28
2019-01-26T18:42:31.559Z,82.78
2019-01-26T18:45:02.976Z,82.35
2019-01-26T18:47:34.626Z,82.56
2019-01-26T18:50:08.785Z,82.27
2019-01-26T18:52:40.264Z,82.60
2019-01-26T18:55:13.119Z,82.58
2019-01-26T18:57:44.675Z,82.78
2019-01-26T19:00:30.160Z,82.91
2019-01-26T19:03:28.102Z,82.21
2019-01-26T19:05:59.767Z,82.40
2019-01-26T19:08:31.274Z,81.89
2019-01-26T19:11:02.774Z,81.70
2019-01-26T19:13:34.298Z,82.04
2019-01-26T19:16:07.370Z,81.97
2019-01-26T19:18:38.997Z,82.43
2019-01-26T19:21:10.560Z,81.68
2019-01-26T19:23:44.520Z,82.66
2019-01-26T19:26:15.944Z,83.20
2019-01-26T19:28:47.482Z,81.53
2019-01-26T19:31:19.382Z,82.14
2019-01-26T19:33:50.879Z,82.23
2019-01-26T19:36:22.311Z,82.18
2019-01-26T19:38:53.771Z,82.58
2019-01-26T19:41:25.201Z,82.36
2019-01-26T19:43:56.664Z,82.66
2019-01-26T19:46:28.076Z,82.08
2019-01-26T19:48:59.529Z,81.98
2019-01-26T19:51:30.936Z,82.20
2019-01-26T19:54:02.417Z,82.37
2019-01-26T19:56:33.922Z,81.94
2019-01-26T19:59:05.774Z,81.96
2019-01-26T20:01:37.192Z,82.16
2019-01-26T20:04:08.745Z,82.57
2019-01-26T20:06:40.196Z,82.34
2019-01-26T20:09:11.911Z,82.11
2019-01-26T20:11:43.344Z,82.33
2019-01-26T20:14:14.722Z,82.79
2019-01-26T20:16:46.163Z,82.47
2019-01-26T20:19:17.751Z,81.85
2019-01-26T20:21:49.176Z,82.14
2019-01-26T20:24:20.717Z,81.67
2019-01-26T20:26:52.111Z,81.73
2019-01-26T20:29:23.594Z,82.55
2019-01-26T20:31:55.006Z,82.63
2019-01-26T20:34:26.565Z,82.30
2019-01-26T20:36:57.945Z,82.09
2019-01-26T20:39:29.565Z,81.66
2019-01-26T20:42:01.066Z,81.60
2019-01-26T20:44:32.587Z,81.80
2019-01-26T20:47:04.009Z,80.85
2019-01-26T20:49:35.450Z,81.80
2019-01-26T20:52:06.878Z,81.47
2019-01-26T20:54:38.395Z,81.65
2019-01-26T20:57:10.864Z,81.77
2019-01-26T20:59:42.375Z,82.10
2019-01-26T21:02:13.857Z,82.10
2019-01-26T21:04:45.297Z,82.22
2019-01-26T21:07:20.328Z,81.59
2019-01-26T21:09:51.771Z,81.92
2019-01-26T21:12:23.193Z,81.95
2019-01-26T21:14:54.628Z,81.89
2019-01-26T21:17:26.054Z,82.43
2019-01-26T21:19:57.541Z,83.05
2019-01-26T21:22:28.966Z,82.73
2019-01-26T21:25:01.631Z,82.47
2019-01-26T21:27:33.235Z,82.63
2019-01-26T21:30:05.933Z,83.15
2019-01-26T21:32:37.360Z,82.94
2019-01-26T21:35:09.949Z,83.06
2019-01-26T21:37:41.437Z,83.14
2019-01-26T21:40:20.072Z,82.62
2019-01-26T21:42:51.502Z,83.01
2019-01-26T21:45:23.210Z,82.68
2019-01-26T21:47:57.140Z,82.41
2019-01-26T21:50:30.566Z,82.64
2019-01-26T21:53:02.092Z,82.58
2019-01-26T21:55:34.342Z,82.95
2019-01-26T21:58:05.903Z,82.52
2019-01-26T22:00:37.348Z,82.45
2019-01-26T22:03:08.815Z,82.15
2019-01-26T22:05:40.272Z,82.06
2019-01-26T22:08:11.767Z,82.88
2019-01-26T22:10:43.193Z,82.84
2019-01-26T22:13:18.386Z,83.31
2019-01-26T22:15:49.850Z,83.20
2019-01-26T22:18:21.653Z,83.38
2019-01-26T22:20:53.155Z,83.33
2019-01-26T22:23:24.584Z,83.78
2019-01-26T22:25:56.110Z,83.68
2019-01-26T22:28:27.567Z,83.79
2019-01-26T22:30:58.990Z,84.03
2019-01-26T22:33:30.447Z,84.01
2019-01-26T22:36:03.470Z,84.21
2019-01-26T22:38:35.201Z,83.97
2019-01-26T22:41:06.616Z,84.07
2019-01-26T22:43:38.021Z,83.65
2019-01-26T22:46:09.483Z,83.72
2019-01-26T22:48:40.919Z,84.82
2019-01-26T22:51:13.904Z,84.32
2019-01-26T22:53:45.319Z,84.45
2019-01-26T22:56:16.716Z,84.53
2019-01-26T22:58:48.190Z,84.75
2019-01-26T23:01:33.209Z,84.70
2019-01-26T23:05:34.617Z,85.04
2019-01-26T23:08:16.696Z,85.15
2019-01-26T23:11:50.084Z,85.09
2019-01-26T23:15:15.242Z,85.34
2019-01-26T23:18:54.854Z,85.57
2019-01-26T23:22:41.436Z,85.59
2019-01-26T23:25:49.990Z,85.49
2019-01-26T23:29:33.002Z,85.47
2019-01-26T23:32:06.268Z,85.46
2019-01-26T23:34:37.728Z,85.52
2019-01-26T23:37:09.152Z,85.56
2019-01-26T23:39:42.666Z,85.42
2019-01-26T23:42:14.091Z,85.73
2019-01-26T23:44:46.407Z,85.80
2019-01-26T23:47:17.814Z,85.64
2019-01-26T23:49:49.245Z,85.50
2019-01-26T23:52:20.688Z,85.35
2019-01-26T23:54:52.051Z,85.35
2019-01-26T23:57:23.480Z,85.43
2019-01-26T23:59:54.973Z,85.64
